^^
Saratoga-Weather Station Historical Data
Daily Summary for April 19, 2020 Units:  Both    English   Metric
Daily Weekly Monthly Yearly Custom
  High: Low: Average:
Temperature: 69.8 °F /  21 °C 48.4 °F /  9.1 °C 59 °F /  15 °C
Dew Point: 54.9 °F /  12.7 °C 44.2 °F /  6.8 °C 50.9 °F /  10.5 °C
Humidity: 96% 56% 76%
Wind Speed: 8.9mph /  14.3km/h - 1.7mph /  2.8km/h
Wind Gust: 13mph /  20.9km/h - -
Wind- - South
Pressure: 30 in /  1015.6 hPa 29.9 in /  1011.9 hPa -
Precipitation: 0 in /  0.0 mm    
Historical Graphs
 
 
Tabular Data for April 19, 2020
Time Temperature Dew Point Pressure Wind Wind Speed Wind Gust Humidity Rainfall Rate (Hourly) solar
00:04 55 °F /  12.8 °C 50.9 °F /  10.5 °C 30in /  1014.9hPa Calm   1mph /  1.6km/h 86% 0in /  0.0mm 0 W/m2
00:09 54.9 °F /  12.7 °C 51.1 °F /  10.6 °C 30in /  1014.9hPa Calm     87% 0in /  0.0mm 0 W/m2
00:14 54.9 °F /  12.7 °C 51.1 °F /  10.6 °C 30in /  1014.9hPa Calm   1mph /  1.6km/h 87% 0in /  0.0mm 0 W/m2
00:19 54.7 °F /  12.6 °C 50.9 °F /  10.5 °C 30in /  1014.9hPa Calm     87% 0in /  0.0mm 0 W/m2
00:24 54.3 °F /  12.4 °C 50.9 °F /  10.5 °C 30in /  1014.9hPa Calm   1mph /  1.6km/h 88% 0in /  0.0mm 0 W/m2
00:29 54.3 °F /  12.4 °C 50.9 °F /  10.5 °C 30in /  1014.9hPa Calm   1mph /  1.6km/h 88% 0in /  0.0mm 0 W/m2
00:34 54.1 °F /  12.3 °C 50.7 °F /  10.4 °C 30in /  1014.9hPa Calm     88% 0in /  0.0mm 0 W/m2
00:39 54 °F /  12.2 °C 50.7 °F /  10.4 °C 30in /  1014.9hPa Calm     89% 0in /  0.0mm 0 W/m2
00:44 53.8 °F /  12.1 °C 50.5 °F /  10.3 °C 30in /  1014.9hPa Calm     89% 0in /  0.0mm 0 W/m2
00:49 53.6 °F /  12 °C 50.4 °F /  10.2 °C 30in /  1014.9hPa West 0.9mph /  1.4km/h 1mph /  1.6km/h 89% 0in /  0.0mm 0 W/m2
00:54 53.4 °F /  11.9 °C 50.5 °F /  10.3 °C 30in /  1014.9hPa Calm     90% 0in /  0.0mm 0 W/m2
00:59 53.2 °F /  11.8 °C 50.4 °F /  10.2 °C 30in /  1014.9hPa Calm     90% 0in /  0.0mm 0 W/m2
01:04 53.2 °F /  11.8 °C 50.4 °F /  10.2 °C 30in /  1014.9hPa West 0.9mph /  1.4km/h 2mph /  3.2km/h 90% 0in /  0.0mm 0 W/m2
01:09 53.2 °F /  11.8 °C 50.4 °F /  10.2 °C 30in /  1014.9hPa Calm     90% 0in /  0.0mm 0 W/m2
01:14 53.1 °F /  11.7 °C 50.5 °F /  10.3 °C 30in /  1014.9hPa Calm   2mph /  3.2km/h 91% 0in /  0.0mm 0 W/m2
01:19 53.1 °F /  11.7 °C 50.2 °F /  10.1 °C 30in /  1015.2hPa Calm     90% 0in /  0.0mm 0 W/m2
01:24 52.9 °F /  11.6 °C 50.4 °F /  10.2 °C 30in /  1014.9hPa Calm   1mph /  1.6km/h 91% 0in /  0.0mm 0 W/m2
01:29 52.9 °F /  11.6 °C 50.4 °F /  10.2 °C 30in /  1015.2hPa Calm   1mph /  1.6km/h 91% 0in /  0.0mm 0 W/m2
01:34 52.7 °F /  11.5 °C 50.2 °F /  10.1 °C 30in /  1014.9hPa Calm     91% 0in /  0.0mm 0 W/m2
01:39 52.7 °F /  11.5 °C 50.2 °F /  10.1 °C 30in /  1014.9hPa West 0.9mph /  1.4km/h 1mph /  1.6km/h 91% 0in /  0.0mm 0 W/m2
01:44 52.5 °F /  11.4 °C 50.2 °F /  10.1 °C 30in /  1015.2hPa Calm   1mph /  1.6km/h 92% 0in /  0.0mm 0 W/m2
01:49 52.5 °F /  11.4 °C 50.2 °F /  10.1 °C 30in /  1015.2hPa Calm     92% 0in /  0.0mm 0 W/m2
01:54 52.5 °F /  11.4 °C 50.2 °F /  10.1 °C 30in /  1014.9hPa Calm   1mph /  1.6km/h 92% 0in /  0.0mm 0 W/m2
01:59 52.5 °F /  11.4 °C 50.2 °F /  10.1 °C 30in /  1014.9hPa Calm   2mph /  3.2km/h 92% 0in /  0.0mm 0 W/m2
02:04 52.3 °F /  11.3 °C 50 °F /  10 °C 30in /  1014.9hPa Calm     92% 0in /  0.0mm 0 W/m2
02:09 52.3 °F /  11.3 °C 50 °F /  10 °C 30in /  1014.9hPa Calm   2mph /  3.2km/h 92% 0in /  0.0mm 0 W/m2
02:14 52.3 °F /  11.3 °C 50 °F /  10 °C 30in /  1014.9hPa Calm   1mph /  1.6km/h 92% 0in /  0.0mm 0 W/m2
02:19 52.3 °F /  11.3 °C 50 °F /  10 °C 30in /  1014.9hPa West 0.9mph /  1.4km/h 2mph /  3.2km/h 92% 0in /  0.0mm 0 W/m2
02:24 52.3 °F /  11.3 °C 50.4 °F /  10.2 °C 30in /  1014.9hPa West 0.9mph /  1.4km/h 1mph /  1.6km/h 93% 0in /  0.0mm 0 W/m2
02:29 52.5 °F /  11.4 °C 50.5 °F /  10.3 °C 30in /  1014.9hPa Calm     93% 0in /  0.0mm 0 W/m2
02:34 52.5 °F /  11.4 °C 50.5 °F /  10.3 °C 30in /  1014.9hPa West 0.9mph /  1.4km/h 2mph /  3.2km/h 93% 0in /  0.0mm 0 W/m2
02:39 52.5 °F /  11.4 °C 50.5 °F /  10.3 °C 30in /  1014.9hPa Calm   1mph /  1.6km/h 93% 0in /  0.0mm 0 W/m2
02:44 52.5 °F /  11.4 °C 50.5 °F /  10.3 °C 30in /  1014.9hPa NW 2mph /  3.2km/h 2mph /  3.2km/h 93% 0in /  0.0mm 0 W/m2
02:49 52.3 °F /  11.3 °C 50 °F /  10 °C 30in /  1014.9hPa Calm   1mph /  1.6km/h 92% 0in /  0.0mm 0 W/m2
02:54 52.3 °F /  11.3 °C 50 °F /  10 °C 30in /  1014.9hPa Calm     92% 0in /  0.0mm 0 W/m2
02:59 52.2 °F /  11.2 °C 49.8 °F /  9.9 °C 30in /  1014.9hPa Calm     92% 0in /  0.0mm 0 W/m2
03:04 52 °F /  11.1 °C 49.6 °F /  9.8 °C 30in /  1014.9hPa NW 0.9mph /  1.4km/h 2mph /  3.2km/h 92% 0in /  0.0mm 0 W/m2
03:09 51.8 °F /  11 °C 49.6 °F /  9.8 °C 30in /  1014.6hPa Calm   1mph /  1.6km/h 92% 0in /  0.0mm 0 W/m2
03:14 51.6 °F /  10.9 °C 49.5 °F /  9.7 °C 30in /  1014.6hPa Calm   1mph /  1.6km/h 92% 0in /  0.0mm 0 W/m2
03:19 51.6 °F /  10.9 °C 49.5 °F /  9.7 °C 30in /  1014.9hPa Calm   2mph /  3.2km/h 92% 0in /  0.0mm 0 W/m2
03:24 51.4 °F /  10.8 °C 49.3 °F /  9.6 °C 30in /  1014.9hPa Calm   1mph /  1.6km/h 92% 0in /  0.0mm 0 W/m2
03:29 51.4 °F /  10.8 °C 49.3 °F /  9.6 °C 30in /  1014.6hPa SW 0.9mph /  1.4km/h 2mph /  3.2km/h 92% 0in /  0.0mm 0 W/m2
03:34 51.4 °F /  10.8 °C 49.3 °F /  9.6 °C 30in /  1014.9hPa Calm     92% 0in /  0.0mm 0 W/m2
03:39 51.4 °F /  10.8 °C 49.3 °F /  9.6 °C 30in /  1014.6hPa Calm   2mph /  3.2km/h 92% 0in /  0.0mm 0 W/m2
03:44 51.4 °F /  10.8 °C 49.3 °F /  9.6 °C 30in /  1014.6hPa Calm     92% 0in /  0.0mm 0 W/m2
03:49 51.3 °F /  10.7 °C 49.1 °F /  9.5 °C 30in /  1014.9hPa Calm     92% 0in /  0.0mm 0 W/m2
03:54 51.1 °F /  10.6 °C 48.9 °F /  9.4 °C 30in /  1014.6hPa Calm     92% 0in /  0.0mm 0 W/m2
03:59 50.9 °F /  10.5 °C 48.7 °F /  9.3 °C 30in /  1014.9hPa Calm     92% 0in /  0.0mm 0 W/m2
04:04 50.7 °F /  10.4 °C 48.6 °F /  9.2 °C 30in /  1014.9hPa Calm     92% 0in /  0.0mm 0 W/m2
04:09 50.5 °F /  10.3 °C 48.4 °F /  9.1 °C 30in /  1014.9hPa Calm     92% 0in /  0.0mm 0 W/m2
04:14 50.4 °F /  10.2 °C 48.2 °F /  9 °C 30in /  1014.9hPa Calm     92% 0in /  0.0mm 0 W/m2
04:19 50.2 °F /  10.1 °C 48 °F /  8.9 °C 30in /  1014.9hPa Calm     92% 0in /  0.0mm 0 W/m2
04:24 50 °F /  10 °C 47.8 °F /  8.8 °C 30in /  1014.9hPa Calm   1mph /  1.6km/h 92% 0in /  0.0mm 0 W/m2
04:29 49.8 °F /  9.9 °C 47.7 °F /  8.7 °C 30in /  1014.9hPa Calm     92% 0in /  0.0mm 0 W/m2
04:34 49.6 °F /  9.8 °C 47.5 °F /  8.6 °C 30in /  1014.9hPa Calm   1mph /  1.6km/h 92% 0in /  0.0mm 0 W/m2
04:39 49.6 °F /  9.8 °C 47.7 °F /  8.7 °C 30in /  1014.9hPa Calm     93% 0in /  0.0mm 0 W/m2
04:44 49.5 °F /  9.7 °C 47.5 °F /  8.6 °C 30in /  1014.9hPa Calm     93% 0in /  0.0mm 0 W/m2
04:49 49.3 °F /  9.6 °C 47.3 °F /  8.5 °C 30in /  1014.9hPa Calm     93% 0in /  0.0mm 0 W/m2
04:54 49.3 °F /  9.6 °C 47.3 °F /  8.5 °C 30in /  1014.9hPa Calm     93% 0in /  0.0mm 0 W/m2
04:59 48.9 °F /  9.4 °C 46.9 °F /  8.3 °C 30in /  1014.9hPa Calm     93% 0in /  0.0mm 0 W/m2
05:04 48.9 °F /  9.4 °C 46.9 °F /  8.3 °C 30in /  1014.9hPa Calm     93% 0in /  0.0mm 0 W/m2
05:09 48.9 °F /  9.4 °C 47.3 °F /  8.5 °C 30in /  1014.6hPa Calm   1mph /  1.6km/h 94% 0in /  0.0mm 0 W/m2
05:14 48.9 °F /  9.4 °C 47.3 °F /  8.5 °C 30in /  1014.9hPa SW 0.9mph /  1.4km/h 1mph /  1.6km/h 94% 0in /  0.0mm 0 W/m2
05:19 48.7 °F /  9.3 °C 46.8 °F /  8.2 °C 30in /  1014.6hPa West 0.9mph /  1.4km/h 2mph /  3.2km/h 93% 0in /  0.0mm 0 W/m2
05:24 48.7 °F /  9.3 °C 47.1 °F /  8.4 °C 30in /  1014.6hPa West 2mph /  3.2km/h 2mph /  3.2km/h 94% 0in /  0.0mm 0 W/m2
05:29 48.7 °F /  9.3 °C 47.1 °F /  8.4 °C 30in /  1014.6hPa Calm     94% 0in /  0.0mm 0 W/m2
05:35 48.7 °F /  9.3 °C 47.1 °F /  8.4 °C 30in /  1014.6hPa Calm   2mph /  3.2km/h 94% 0in /  0.0mm 0 W/m2
05:40 48.6 °F /  9.2 °C 46.9 °F /  8.3 °C 30in /  1014.6hPa Calm     94% 0in /  0.0mm 0 W/m2
05:45 48.6 °F /  9.2 °C 46.9 °F /  8.3 °C 30in /  1014.6hPa Calm     94% 0in /  0.0mm 0 W/m2
05:50 48.7 °F /  9.3 °C 47.1 °F /  8.4 °C 30in /  1014.6hPa Calm     94% 0in /  0.0mm 0 W/m2
05:55 48.7 °F /  9.3 °C 47.3 °F /  8.5 °C 30in /  1014.6hPa Calm   1mph /  1.6km/h 95% 0in /  0.0mm 0 W/m2
06:00 48.9 °F /  9.4 °C 47.5 °F /  8.6 °C 30in /  1014.6hPa Calm     95% 0in /  0.0mm 0 W/m2
06:05 48.9 °F /  9.4 °C 47.5 °F /  8.6 °C 30in /  1014.6hPa Calm     95% 0in /  0.0mm 0 W/m2
06:10 48.7 °F /  9.3 °C 47.3 °F /  8.5 °C 30in /  1014.6hPa Calm     95% 0in /  0.0mm 0 W/m2
06:15 48.7 °F /  9.3 °C 47.3 °F /  8.5 °C 30in /  1014.2hPa Calm     95% 0in /  0.0mm 0 W/m2
06:20 48.7 °F /  9.3 °C 47.3 °F /  8.5 °C 30in /  1014.6hPa Calm     95% 0in /  0.0mm 0 W/m2
06:25 48.6 °F /  9.2 °C 47.1 °F /  8.4 °C 30in /  1014.6hPa Calm     95% 0in /  0.0mm 0 W/m2
06:30 48.6 °F /  9.2 °C 46.9 °F /  8.3 °C 30in /  1014.6hPa Calm     94% 0in /  0.0mm 0 W/m2
06:35 48.4 °F /  9.1 °C 46.8 °F /  8.2 °C 30in /  1014.6hPa Calm     94% 0in /  0.0mm 0 W/m2
06:40 48.4 °F /  9.1 °C 46.9 °F /  8.3 °C 30in /  1014.6hPa Calm     95% 0in /  0.0mm 5 W/m2
06:45 48.6 °F /  9.2 °C 47.1 °F /  8.4 °C 30in /  1014.6hPa Calm     95% 0in /  0.0mm 9 W/m2
06:50 48.9 °F /  9.4 °C 47.8 °F /  8.8 °C 30in /  1014.6hPa NW 0.9mph /  1.4km/h 1mph /  1.6km/h 96% 0in /  0.0mm 12 W/m2
06:55 49.3 °F /  9.6 °C 48.2 °F /  9 °C 30in /  1014.6hPa NW 0.9mph /  1.4km/h 1mph /  1.6km/h 96% 0in /  0.0mm 16 W/m2
07:00 49.5 °F /  9.7 °C 48.4 °F /  9.1 °C 30in /  1014.6hPa Calm   2mph /  3.2km/h 96% 0in /  0.0mm 25 W/m2
07:05 49.6 °F /  9.8 °C 48.6 °F /  9.2 °C 30in /  1014.6hPa NW 0.9mph /  1.4km/h 1mph /  1.6km/h 96% 0in /  0.0mm 23 W/m2
07:11 50.2 °F /  10.1 °C 49.1 °F /  9.5 °C 30in /  1014.6hPa South 0.9mph /  1.4km/h 2mph /  3.2km/h 96% 0in /  0.0mm 23 W/m2
07:16 50.4 °F /  10.2 °C 49.3 °F /  9.6 °C 30in /  1014.6hPa Calm     96% 0in /  0.0mm 23 W/m2
07:21 50.4 °F /  10.2 °C 49.3 °F /  9.6 °C 30in /  1014.6hPa WSW 2mph /  3.2km/h 2mph /  3.2km/h 96% 0in /  0.0mm 28 W/m2
07:26 50.7 °F /  10.4 °C 49.6 °F /  9.8 °C 30in /  1014.6hPa West 0.9mph /  1.4km/h 1mph /  1.6km/h 96% 0in /  0.0mm 47 W/m2
07:31 50.9 °F /  10.5 °C 49.8 °F /  9.9 °C 30in /  1014.6hPa Calm   2mph /  3.2km/h 96% 0in /  0.0mm 47 W/m2
07:36 51.1 °F /  10.6 °C 50 °F /  10 °C 30in /  1014.9hPa Calm   1mph /  1.6km/h 96% 0in /  0.0mm 63 W/m2
07:41 51.3 °F /  10.7 °C 49.8 °F /  9.9 °C 30in /  1014.9hPa NNW 0.9mph /  1.4km/h 1mph /  1.6km/h 95% 0in /  0.0mm 56 W/m2
07:46 51.4 °F /  10.8 °C 50 °F /  10 °C 30in /  1014.9hPa Calm   2mph /  3.2km/h 95% 0in /  0.0mm 76 W/m2
07:51 51.4 °F /  10.8 °C 50 °F /  10 °C 30in /  1015.2hPa NNW 0.9mph /  1.4km/h 1mph /  1.6km/h 95% 0in /  0.0mm 165 W/m2
07:56 51.8 °F /  11 °C 50.4 °F /  10.2 °C 30in /  1015.2hPa Calm     95% 0in /  0.0mm 95 W/m2
08:01 52 °F /  11.1 °C 50.5 °F /  10.3 °C 30in /  1015.2hPa NW 0.9mph /  1.4km/h 2mph /  3.2km/h 95% 0in /  0.0mm 132 W/m2
08:06 52.2 °F /  11.2 °C 50.7 °F /  10.4 °C 30in /  1015.2hPa West 0.9mph /  1.4km/h 2mph /  3.2km/h 95% 0in /  0.0mm 107 W/m2
08:11 52.3 °F /  11.3 °C 50.9 °F /  10.5 °C 30in /  1015.2hPa Calm   2mph /  3.2km/h 95% 0in /  0.0mm 107 W/m2
08:16 52.5 °F /  11.4 °C 51.1 °F /  10.6 °C 30in /  1015.2hPa NNW 2.9mph /  4.7km/h 3mph /  4.8km/h 95% 0in /  0.0mm 105 W/m2
08:21 52.9 °F /  11.6 °C 51.3 °F /  10.7 °C 30in /  1015.2hPa NW 0.9mph /  1.4km/h 1mph /  1.6km/h 94% 0in /  0.0mm 102 W/m2
08:26 53.1 °F /  11.7 °C 51.4 °F /  10.8 °C 30in /  1015.2hPa NW 0.9mph /  1.4km/h 1mph /  1.6km/h 94% 0in /  0.0mm 114 W/m2
08:31 53.2 °F /  11.8 °C 51.6 °F /  10.9 °C 30in /  1015.2hPa NW 0.9mph /  1.4km/h 1mph /  1.6km/h 94% 0in /  0.0mm 127 W/m2
08:36 53.6 °F /  12 °C 52 °F /  11.1 °C 30in /  1015.2hPa WNW 0.9mph /  1.4km/h 3mph /  4.8km/h 94% 0in /  0.0mm 160 W/m2
08:41 54 °F /  12.2 °C 52 °F /  11.1 °C 30in /  1015.2hPa Calm   1mph /  1.6km/h 93% 0in /  0.0mm 153 W/m2
08:46 54.1 °F /  12.3 °C 52.2 °F /  11.2 °C 30in /  1015.2hPa NW 0.9mph /  1.4km/h 3mph /  4.8km/h 93% 0in /  0.0mm 172 W/m2
08:51 54.3 °F /  12.4 °C 52.3 °F /  11.3 °C 30in /  1015.2hPa Calm   2mph /  3.2km/h 93% 0in /  0.0mm 155 W/m2
08:56 54.7 °F /  12.6 °C 52.3 °F /  11.3 °C 30in /  1015.2hPa Calm   3mph /  4.8km/h 92% 0in /  0.0mm 156 W/m2
09:01 55 °F /  12.8 °C 52.7 °F /  11.5 °C 30in /  1015.2hPa Calm   2mph /  3.2km/h 92% 0in /  0.0mm 171 W/m2
09:06 55.2 °F /  12.9 °C 52.9 °F /  11.6 °C 30in /  1015.2hPa WNW 0.9mph /  1.4km/h 2mph /  3.2km/h 92% 0in /  0.0mm 188 W/m2
09:11 55.6 °F /  13.1 °C 53.1 °F /  11.7 °C 30in /  1015.2hPa NW 0.9mph /  1.4km/h 2mph /  3.2km/h 91% 0in /  0.0mm 188 W/m2
09:16 55.9 °F /  13.3 °C 53.1 °F /  11.7 °C 30in /  1015.2hPa NW 2.9mph /  4.7km/h 8mph /  12.9km/h 90% 0in /  0.0mm 287 W/m2
09:21 55.9 °F /  13.3 °C 52.7 °F /  11.5 °C 30in /  1015.2hPa West 4mph /  6.4km/h 10mph /  16.1km/h 89% 0in /  0.0mm 265 W/m2
09:26 55.8 °F /  13.2 °C 52.5 °F /  11.4 °C 30in /  1015.2hPa WNW 4mph /  6.4km/h 4mph /  6.4km/h 89% 0in /  0.0mm 206 W/m2
09:31 55.6 °F /  13.1 °C 52.3 °F /  11.3 °C 30in /  1015.6hPa WNW 0.9mph /  1.4km/h 10mph /  16.1km/h 89% 0in /  0.0mm 257 W/m2
09:36 55.8 °F /  13.2 °C 52.5 °F /  11.4 °C 30in /  1015.6hPa NNW 2.9mph /  4.7km/h 3mph /  4.8km/h 89% 0in /  0.0mm 410 W/m2
09:41 55.9 °F /  13.3 °C 52.5 °F /  11.4 °C 30in /  1015.6hPa NNW 2.9mph /  4.7km/h 6mph /  9.7km/h 88% 0in /  0.0mm 355 W/m2
09:46 55.9 °F /  13.3 °C 52.5 °F /  11.4 °C 30in /  1015.6hPa West 2mph /  3.2km/h 8mph /  12.9km/h 88% 0in /  0.0mm 223 W/m2
09:51 55.9 °F /  13.3 °C 52.2 °F /  11.2 °C 30in /  1015.6hPa ENE 2mph /  3.2km/h 3mph /  4.8km/h 87% 0in /  0.0mm 192 W/m2
09:56 55.9 °F /  13.3 °C 52.2 °F /  11.2 °C 30in /  1015.6hPa NNW 0.9mph /  1.4km/h 3mph /  4.8km/h 87% 0in /  0.0mm 287 W/m2
10:01 55.9 °F /  13.3 °C 52.2 °F /  11.2 °C 30in /  1015.2hPa NE 2mph /  3.2km/h 2mph /  3.2km/h 87% 0in /  0.0mm 255 W/m2
10:06 56.1 °F /  13.4 °C 52.3 °F /  11.3 °C 30in /  1015.2hPa NE 0.9mph /  1.4km/h 3mph /  4.8km/h 87% 0in /  0.0mm 301 W/m2
10:11 56.3 °F /  13.5 °C 52.5 °F /  11.4 °C 30in /  1015.2hPa NW 0.9mph /  1.4km/h 2mph /  3.2km/h 87% 0in /  0.0mm 299 W/m2
10:16 56.5 °F /  13.6 °C 52.3 °F /  11.3 °C 30in /  1015.2hPa NW 0.9mph /  1.4km/h 1mph /  1.6km/h 86% 0in /  0.0mm 171 W/m2
10:21 56.8 °F /  13.8 °C 52.7 °F /  11.5 °C 30in /  1015.2hPa NW 0.9mph /  1.4km/h 2mph /  3.2km/h 86% 0in /  0.0mm 251 W/m2
10:26 57.4 °F /  14.1 °C 52.9 °F /  11.6 °C 30in /  1014.9hPa West 2mph /  3.2km/h 3mph /  4.8km/h 85% 0in /  0.0mm 529 W/m2
10:31 57.9 °F /  14.4 °C 53.4 °F /  11.9 °C 30in /  1014.9hPa WNW 2mph /  3.2km/h 2mph /  3.2km/h 85% 0in /  0.0mm 527 W/m2
10:36 58.8 °F /  14.9 °C 53.6 °F /  12 °C 30in /  1014.9hPa NNW 2mph /  3.2km/h 2mph /  3.2km/h 83% 0in /  0.0mm 543 W/m2
10:41 59.5 °F /  15.3 °C 53.1 °F /  11.7 °C 30in /  1014.9hPa NNW 0.9mph /  1.4km/h 7mph /  11.3km/h 79% 0in /  0.0mm 552 W/m2
10:47 60.1 °F /  15.6 °C 53.6 °F /  12 °C 30in /  1014.9hPa Calm   3mph /  4.8km/h 79% 0in /  0.0mm 557 W/m2
10:52 61 °F /  16.1 °C 53.8 °F /  12.1 °C 30in /  1014.6hPa North 2.9mph /  4.7km/h 7mph /  11.3km/h 77% 0in /  0.0mm 563 W/m2
10:57 61.3 °F /  16.3 °C 53.8 °F /  12.1 °C 30in /  1014.6hPa ESE 2.9mph /  4.7km/h 4mph /  6.4km/h 76% 0in /  0.0mm 584 W/m2
11:02 61.5 °F /  16.4 °C 53.6 °F /  12 °C 30in /  1014.6hPa North 2mph /  3.2km/h 2mph /  3.2km/h 75% 0in /  0.0mm 582 W/m2
11:07 61.9 °F /  16.6 °C 53.8 °F /  12.1 °C 30in /  1014.6hPa West 2.9mph /  4.7km/h 5mph /  8km/h 75% 0in /  0.0mm 596 W/m2
11:12 62.4 °F /  16.9 °C 54 °F /  12.2 °C 30in /  1014.6hPa ENE 0.9mph /  1.4km/h 4mph /  6.4km/h 74% 0in /  0.0mm 615 W/m2
11:17 62.4 °F /  16.9 °C 53.6 °F /  12 °C 30in /  1014.6hPa East 2.9mph /  4.7km/h 5mph /  8km/h 73% 0in /  0.0mm 622 W/m2
11:23 62.2 °F /  16.8 °C 53.8 °F /  12.1 °C 30in /  1014.6hPa ESE 2mph /  3.2km/h 5mph /  8km/h 74% 0in /  0.0mm 613 W/m2
11:28 62.6 °F /  17 °C 53.8 °F /  12.1 °C 30in /  1014.6hPa NE 0.9mph /  1.4km/h 3mph /  4.8km/h 73% 0in /  0.0mm 619 W/m2
11:33 62.8 °F /  17.1 °C 54 °F /  12.2 °C 30in /  1014.6hPa ESE 2mph /  3.2km/h 4mph /  6.4km/h 73% 0in /  0.0mm 636 W/m2
11:38 63.1 °F /  17.3 °C 54 °F /  12.2 °C 30in /  1014.6hPa WNW 2mph /  3.2km/h 4mph /  6.4km/h 72% 0in /  0.0mm 643 W/m2
11:43 63.3 °F /  17.4 °C 53.8 °F /  12.1 °C 30in /  1014.6hPa East 4mph /  6.4km/h 4mph /  6.4km/h 71% 0in /  0.0mm 652 W/m2
11:48 63.7 °F /  17.6 °C 54.5 °F /  12.5 °C 30in /  1014.6hPa ENE 0.9mph /  1.4km/h 3mph /  4.8km/h 72% 0in /  0.0mm 661 W/m2
11:53 64 °F /  17.8 °C 54.1 °F /  12.3 °C 30in /  1014.6hPa NNW 2mph /  3.2km/h 4mph /  6.4km/h 70% 0in /  0.0mm 670 W/m2
11:58 64.2 °F /  17.9 °C 54.7 °F /  12.6 °C 30in /  1014.2hPa ENE 2.9mph /  4.7km/h 4mph /  6.4km/h 71% 0in /  0.0mm 666 W/m2
12:03 64.2 °F /  17.9 °C 53.8 °F /  12.1 °C 30in /  1014.2hPa NE 2mph /  3.2km/h 5mph /  8km/h 69% 0in /  0.0mm 675 W/m2
12:08 64.2 °F /  17.9 °C 53.8 °F /  12.1 °C 30in /  1014.2hPa NNW 0.9mph /  1.4km/h 4mph /  6.4km/h 69% 0in /  0.0mm 684 W/m2
12:13 64.4 °F /  18 °C 53.6 °F /  12 °C 30in /  1014.2hPa Calm   4mph /  6.4km/h 68% 0in /  0.0mm 705 W/m2
12:18 64.8 °F /  18.2 °C 54 °F /  12.2 °C 30in /  1014.2hPa ENE 2.9mph /  4.7km/h 4mph /  6.4km/h 68% 0in /  0.0mm 701 W/m2
12:23 65.1 °F /  18.4 °C 53.4 °F /  11.9 °C 30in /  1014.2hPa NNE 2mph /  3.2km/h 5mph /  8km/h 66% 0in /  0.0mm 735 W/m2
12:28 65.5 °F /  18.6 °C 54.7 °F /  12.6 °C 29.9in /  1013.9hPa NE 4.9mph /  7.9km/h 5mph /  8km/h 68% 0in /  0.0mm 735 W/m2
12:33 65.7 °F /  18.7 °C 53.6 °F /  12 °C 29.9in /  1013.9hPa ENE 2mph /  3.2km/h 4mph /  6.4km/h 65% 0in /  0.0mm 731 W/m2
12:38 65.7 °F /  18.7 °C 53.2 °F /  11.8 °C 29.9in /  1013.9hPa East 4.9mph /  7.9km/h 6mph /  9.7km/h 64% 0in /  0.0mm 724 W/m2
12:43 65.8 °F /  18.8 °C 53.8 °F /  12.1 °C 29.9in /  1013.9hPa ENE 2mph /  3.2km/h 5mph /  8km/h 65% 0in /  0.0mm 768 W/m2
12:48 66.2 °F /  19 °C 53.6 °F /  12 °C 29.9in /  1013.9hPa ESE 2.9mph /  4.7km/h 8mph /  12.9km/h 64% 0in /  0.0mm 807 W/m2
12:53 66.6 °F /  19.2 °C 53.1 °F /  11.7 °C 29.9in /  1013.9hPa WNW 2mph /  3.2km/h 5mph /  8km/h 62% 0in /  0.0mm 842 W/m2
12:58 66.6 °F /  19.2 °C 52.7 °F /  11.5 °C 29.9in /  1013.9hPa ENE 2mph /  3.2km/h 8mph /  12.9km/h 61% 0in /  0.0mm 260 W/m2
13:03 66.4 °F /  19.1 °C 52.9 °F /  11.6 °C 29.9in /  1013.9hPa NNE 2.9mph /  4.7km/h 4mph /  6.4km/h 62% 0in /  0.0mm 287 W/m2
13:08 65.8 °F /  18.8 °C 52.5 °F /  11.4 °C 29.9in /  1013.9hPa NNW 2mph /  3.2km/h 2mph /  3.2km/h 62% 0in /  0.0mm 269 W/m2
13:13 65.7 °F /  18.7 °C 52.7 °F /  11.5 °C 29.9in /  1013.5hPa NNW 2mph /  3.2km/h 4mph /  6.4km/h 63% 0in /  0.0mm 271 W/m2
13:18 65.7 °F /  18.7 °C 52.7 °F /  11.5 °C 29.9in /  1013.5hPa WSW 4.9mph /  7.9km/h 5mph /  8km/h 63% 0in /  0.0mm 211 W/m2
13:23 65.1 °F /  18.4 °C 52.7 °F /  11.5 °C 29.9in /  1013.5hPa WNW 0.9mph /  1.4km/h 3mph /  4.8km/h 64% 0in /  0.0mm 812 W/m2
13:28 65.1 °F /  18.4 °C 52.7 °F /  11.5 °C 29.9in /  1013.5hPa Calm   5mph /  8km/h 64% 0in /  0.0mm 163 W/m2
13:33 65.3 °F /  18.5 °C 52.9 °F /  11.6 °C 29.9in /  1013.5hPa Calm   3mph /  4.8km/h 64% 0in /  0.0mm 824 W/m2
13:38 66 °F /  18.9 °C 53.4 °F /  11.9 °C 29.9in /  1013.5hPa NE 2.9mph /  4.7km/h 5mph /  8km/h 64% 0in /  0.0mm 865 W/m2
13:43 66.9 °F /  19.4 °C 53.1 °F /  11.7 °C 29.9in /  1013.5hPa East 2mph /  3.2km/h 4mph /  6.4km/h 61% 0in /  0.0mm 914 W/m2
13:48 67.5 °F /  19.7 °C 52.7 °F /  11.5 °C 29.9in /  1013.5hPa East 2.9mph /  4.7km/h 3mph /  4.8km/h 59% 0in /  0.0mm 921 W/m2
13:53 67.5 °F /  19.7 °C 52.7 °F /  11.5 °C 29.9in /  1013.2hPa West 2mph /  3.2km/h 2mph /  3.2km/h 59% 0in /  0.0mm 315 W/m2
13:58 67.3 °F /  19.6 °C 52.9 °F /  11.6 °C 29.9in /  1013.2hPa NW 2.9mph /  4.7km/h 3mph /  4.8km/h 60% 0in /  0.0mm 919 W/m2
14:03 67.1 °F /  19.5 °C 52.7 °F /  11.5 °C 29.9in /  1013.2hPa ENE 0.9mph /  1.4km/h 7mph /  11.3km/h 60% 0in /  0.0mm 853 W/m2
14:08 67.5 °F /  19.7 °C 53.6 °F /  12 °C 29.9in /  1013.2hPa East 4mph /  6.4km/h 6mph /  9.7km/h 61% 0in /  0.0mm 874 W/m2
14:14 68 °F /  20 °C 52.7 °F /  11.5 °C 29.9in /  1013.2hPa ESE 0.9mph /  1.4km/h 4mph /  6.4km/h 58% 0in /  0.0mm 842 W/m2
14:19 68.4 °F /  20.2 °C 53.4 °F /  11.9 °C 29.9in /  1012.9hPa Calm   6mph /  9.7km/h 59% 0in /  0.0mm 805 W/m2
14:24 68.9 °F /  20.5 °C 54 °F /  12.2 °C 29.9in /  1012.9hPa NE 2mph /  3.2km/h 4mph /  6.4km/h 59% 0in /  0.0mm 812 W/m2
14:29 69.4 °F /  20.8 °C 54 °F /  12.2 °C 29.9in /  1012.9hPa NE 0.9mph /  1.4km/h 3mph /  4.8km/h 58% 0in /  0.0mm 803 W/m2
14:34 69.8 °F /  21 °C 54 °F /  12.2 °C 29.9in /  1012.9hPa East 2.9mph /  4.7km/h 3mph /  4.8km/h 57% 0in /  0.0mm 315 W/m2
14:39 69.6 °F /  20.9 °C 53.2 °F /  11.8 °C 29.9in /  1012.9hPa ENE 2.9mph /  4.7km/h 9mph /  14.5km/h 56% 0in /  0.0mm 847 W/m2
14:44 69.6 °F /  20.9 °C 53.2 °F /  11.8 °C 29.9in /  1012.5hPa WNW 0.9mph /  1.4km/h 5mph /  8km/h 56% 0in /  0.0mm 246 W/m2
14:49 69.4 °F /  20.8 °C 53.6 °F /  12 °C 29.9in /  1012.9hPa NW 2mph /  3.2km/h 8mph /  12.9km/h 57% 0in /  0.0mm 204 W/m2
14:54 68.7 °F /  20.4 °C 52.9 °F /  11.6 °C 29.9in /  1012.5hPa East 2.9mph /  4.7km/h 4mph /  6.4km/h 57% 0in /  0.0mm 167 W/m2
15:00 68.4 °F /  20.2 °C 53.1 °F /  11.7 °C 29.9in /  1012.5hPa ESE 2mph /  3.2km/h 4mph /  6.4km/h 58% 0in /  0.0mm 165 W/m2
15:05 67.8 °F /  19.9 °C 52.5 °F /  11.4 °C 29.9in /  1012.5hPa East 2.9mph /  4.7km/h 4mph /  6.4km/h 58% 0in /  0.0mm 186 W/m2
15:10 67.5 °F /  19.7 °C 52.7 °F /  11.5 °C 29.9in /  1012.5hPa North 4mph /  6.4km/h 5mph /  8km/h 59% 0in /  0.0mm 227 W/m2
15:15 67.3 °F /  19.6 °C 52.9 °F /  11.6 °C 29.9in /  1012.5hPa NNW 6mph /  9.7km/h 6mph /  9.7km/h 60% 0in /  0.0mm 229 W/m2
15:20 67.6 °F /  19.8 °C 52.9 °F /  11.6 °C 29.9in /  1012.5hPa NE 2mph /  3.2km/h 2mph /  3.2km/h 59% 0in /  0.0mm 793 W/m2
15:25 68.5 °F /  20.3 °C 53.2 °F /  11.8 °C 29.9in /  1012.5hPa WNW 4.9mph /  7.9km/h 5mph /  8km/h 58% 0in /  0.0mm 248 W/m2
15:30 68.5 °F /  20.3 °C 53.6 °F /  12 °C 29.9in /  1012.5hPa WSW 2mph /  3.2km/h 3mph /  4.8km/h 59% 0in /  0.0mm 290 W/m2
15:35 68.4 °F /  20.2 °C 53.4 °F /  11.9 °C 29.9in /  1012.5hPa SSW 0.9mph /  1.4km/h 6mph /  9.7km/h 59% 0in /  0.0mm 200 W/m2
15:40 68.2 °F /  20.1 °C 53.2 °F /  11.8 °C 29.9in /  1012.5hPa NW 0.9mph /  1.4km/h 6mph /  9.7km/h 59% 0in /  0.0mm 199 W/m2
15:45 67.8 °F /  19.9 °C 53.4 °F /  11.9 °C 29.9in /  1012.5hPa North 2mph /  3.2km/h 5mph /  8km/h 60% 0in /  0.0mm 216 W/m2
15:50 67.6 °F /  19.8 °C 53.2 °F /  11.8 °C 29.9in /  1012.5hPa ENE 4mph /  6.4km/h 6mph /  9.7km/h 60% 0in /  0.0mm 204 W/m2
15:55 67.6 °F /  19.8 °C 53.8 °F /  12.1 °C 29.9in /  1012.2hPa WNW 4mph /  6.4km/h 8mph /  12.9km/h 61% 0in /  0.0mm 199 W/m2
16:00 67.3 °F /  19.6 °C 53.8 °F /  12.1 °C 29.9in /  1012.5hPa ENE 2mph /  3.2km/h 6mph /  9.7km/h 62% 0in /  0.0mm 223 W/m2
16:05 67.1 °F /  19.5 °C 53.6 °F /  12 °C 29.9in /  1012.2hPa ESE 2.9mph /  4.7km/h 6mph /  9.7km/h 62% 0in /  0.0mm 234 W/m2
16:10 66.9 °F /  19.4 °C 53.4 °F /  11.9 °C 29.9in /  1012.2hPa East 2.9mph /  4.7km/h 7mph /  11.3km/h 62% 0in /  0.0mm 264 W/m2
16:16 67.5 °F /  19.7 °C 54.5 °F /  12.5 °C 29.9in /  1012.2hPa ESE 2.9mph /  4.7km/h 6mph /  9.7km/h 63% 0in /  0.0mm 635 W/m2
16:21 67.8 °F /  19.9 °C 54 °F /  12.2 °C 29.9in /  1012.2hPa NE 2mph /  3.2km/h 5mph /  8km/h 61% 0in /  0.0mm 213 W/m2
16:26 68.2 °F /  20.1 °C 54.1 °F /  12.3 °C 29.9in /  1012.2hPa WSW 0.9mph /  1.4km/h 8mph /  12.9km/h 61% 0in /  0.0mm 563 W/m2
16:31 68.4 °F /  20.2 °C 54.9 °F /  12.7 °C 29.9in /  1012.2hPa ESE 2mph /  3.2km/h 9mph /  14.5km/h 62% 0in /  0.0mm 540 W/m2
16:36 68.4 °F /  20.2 °C 54.3 °F /  12.4 °C 29.9in /  1012.2hPa ESE 6mph /  9.7km/h 10mph /  16.1km/h 61% 0in /  0.0mm 457 W/m2
16:41 68.4 °F /  20.2 °C 54.3 °F /  12.4 °C 29.9in /  1012.2hPa NE 4mph /  6.4km/h 8mph /  12.9km/h 61% 0in /  0.0mm 522 W/m2
16:46 68.5 °F /  20.3 °C 54.1 °F /  12.3 °C 29.9in /  1012.2hPa SSW 4mph /  6.4km/h 6mph /  9.7km/h 60% 0in /  0.0mm 506 W/m2
16:51 68.4 °F /  20.2 °C 54.3 °F /  12.4 °C 29.9in /  1012.2hPa NE 8.9mph /  14.3km/h 9mph /  14.5km/h 61% 0in /  0.0mm 499 W/m2
16:56 67.6 °F /  19.8 °C 53.2 °F /  11.8 °C 29.9in /  1011.9hPa ESE 4mph /  6.4km/h 11mph /  17.7km/h 60% 0in /  0.0mm 408 W/m2
17:01 66.7 °F /  19.3 °C 52.9 °F /  11.6 °C 29.9in /  1012.2hPa SE 2mph /  3.2km/h 7mph /  11.3km/h 61% 0in /  0.0mm 116 W/m2
17:06 66.7 °F /  19.3 °C 53.8 °F /  12.1 °C 29.9in /  1011.9hPa SW 2.9mph /  4.7km/h 4mph /  6.4km/h 63% 0in /  0.0mm 446 W/m2
17:11 66.9 °F /  19.4 °C 53.4 °F /  11.9 °C 29.9in /  1011.9hPa NNW 2mph /  3.2km/h 7mph /  11.3km/h 62% 0in /  0.0mm 425 W/m2
17:16 67.5 °F /  19.7 °C 54 °F /  12.2 °C 29.9in /  1011.9hPa North 2mph /  3.2km/h 6mph /  9.7km/h 62% 0in /  0.0mm 418 W/m2
17:21 68 °F /  20 °C 54 °F /  12.2 °C 29.9in /  1011.9hPa NNE 2.9mph /  4.7km/h 3mph /  4.8km/h 61% 0in /  0.0mm 413 W/m2
17:26 68.2 °F /  20.1 °C 53.8 °F /  12.1 °C 29.9in /  1011.9hPa SW 2mph /  3.2km/h 8mph /  12.9km/h 60% 0in /  0.0mm 388 W/m2
17:31 68.2 °F /  20.1 °C 54.1 °F /  12.3 °C 29.9in /  1011.9hPa NNE 2.9mph /  4.7km/h 7mph /  11.3km/h 61% 0in /  0.0mm 373 W/m2
17:36 68.2 °F /  20.1 °C 54.1 °F /  12.3 °C 29.9in /  1011.9hPa SW 0.9mph /  1.4km/h 4mph /  6.4km/h 61% 0in /  0.0mm 341 W/m2
17:41 68.5 °F /  20.3 °C 54.1 °F /  12.3 °C 29.9in /  1011.9hPa East 8.9mph /  14.3km/h 10mph /  16.1km/h 60% 0in /  0.0mm 332 W/m2
17:46 68.2 °F /  20.1 °C 53.8 °F /  12.1 °C 29.9in /  1011.9hPa ENE 2.9mph /  4.7km/h 4mph /  6.4km/h 60% 0in /  0.0mm 339 W/m2
17:51 67.8 °F /  19.9 °C 54 °F /  12.2 °C 29.9in /  1011.9hPa SSE 4mph /  6.4km/h 8mph /  12.9km/h 61% 0in /  0.0mm 327 W/m2
17:56 67.6 °F /  19.8 °C 53.2 °F /  11.8 °C 29.9in /  1011.9hPa ENE 6.9mph /  11.1km/h 7mph /  11.3km/h 60% 0in /  0.0mm 153 W/m2
18:01 67.5 °F /  19.7 °C 53.6 °F /  12 °C 29.9in /  1011.9hPa NW 2.9mph /  4.7km/h 6mph /  9.7km/h 61% 0in /  0.0mm 346 W/m2
18:06 67.6 °F /  19.8 °C 53.8 °F /  12.1 °C 29.9in /  1011.9hPa NNW 2mph /  3.2km/h 5mph /  8km/h 61% 0in /  0.0mm 176 W/m2
18:11 67.6 °F /  19.8 °C 53.2 °F /  11.8 °C 29.9in /  1011.9hPa NW 4mph /  6.4km/h 8mph /  12.9km/h 60% 0in /  0.0mm 283 W/m2
18:16 67.5 °F /  19.7 °C 54 °F /  12.2 °C 29.9in /  1011.9hPa North 2mph /  3.2km/h 2mph /  3.2km/h 62% 0in /  0.0mm 239 W/m2
18:21 67.6 °F /  19.8 °C 53.2 °F /  11.8 °C 29.9in /  1011.9hPa East 6.9mph /  11.1km/h 9mph /  14.5km/h 60% 0in /  0.0mm 225 W/m2
18:26 67.3 °F /  19.6 °C 53.4 °F /  11.9 °C 29.9in /  1011.9hPa NE 6mph /  9.7km/h 7mph /  11.3km/h 61% 0in /  0.0mm 239 W/m2
18:31 66.9 °F /  19.4 °C 53.4 °F /  11.9 °C 29.9in /  1011.9hPa Calm   3mph /  4.8km/h 62% 0in /  0.0mm 223 W/m2
18:36 67.1 °F /  19.5 °C 53.6 °F /  12 °C 29.9in /  1011.9hPa North 4mph /  6.4km/h 8mph /  12.9km/h 62% 0in /  0.0mm 200 W/m2
18:41 67.1 °F /  19.5 °C 53.2 °F /  11.8 °C 29.9in /  1011.9hPa NNW 0.9mph /  1.4km/h 4mph /  6.4km/h 61% 0in /  0.0mm 142 W/m2
18:47 67.1 °F /  19.5 °C 53.2 °F /  11.8 °C 29.9in /  1011.9hPa West 0.9mph /  1.4km/h 5mph /  8km/h 61% 0in /  0.0mm 165 W/m2
18:52 66.9 °F /  19.4 °C 53.1 °F /  11.7 °C 29.9in /  1011.9hPa NW 2.9mph /  4.7km/h 8mph /  12.9km/h 61% 0in /  0.0mm 155 W/m2
18:57 66.9 °F /  19.4 °C 53.1 °F /  11.7 °C 29.9in /  1011.9hPa NW 0.9mph /  1.4km/h 3mph /  4.8km/h 61% 0in /  0.0mm 137 W/m2
19:02 66.9 °F /  19.4 °C 53.1 °F /  11.7 °C 29.9in /  1011.9hPa SSW 0.9mph /  1.4km/h 5mph /  8km/h 61% 0in /  0.0mm 144 W/m2
19:07 66.7 °F /  19.3 °C 52.9 °F /  11.6 °C 29.9in /  1011.9hPa WNW 4mph /  6.4km/h 8mph /  12.9km/h 61% 0in /  0.0mm 137 W/m2
19:12 66.7 °F /  19.3 °C 52.9 °F /  11.6 °C 29.9in /  1011.9hPa NNE 2mph /  3.2km/h 3mph /  4.8km/h 61% 0in /  0.0mm 120 W/m2
19:17 66.4 °F /  19.1 °C 52.5 °F /  11.4 °C 29.9in /  1011.9hPa Calm   3mph /  4.8km/h 61% 0in /  0.0mm 114 W/m2
19:22 66.4 °F /  19.1 °C 52.5 °F /  11.4 °C 29.9in /  1011.9hPa WNW 2.9mph /  4.7km/h 8mph /  12.9km/h 61% 0in /  0.0mm 100 W/m2
19:27 66 °F /  18.9 °C 52.2 °F /  11.2 °C 29.9in /  1011.9hPa NNE 2.9mph /  4.7km/h 5mph /  8km/h 61% 0in /  0.0mm 97 W/m2
19:32 65.8 °F /  18.8 °C 52 °F /  11.1 °C 29.9in /  1011.9hPa NNE 2.9mph /  4.7km/h 5mph /  8km/h 61% 0in /  0.0mm 65 W/m2
19:37 65.3 °F /  18.5 °C 52 °F /  11.1 °C 29.9in /  1011.9hPa WNW 2.9mph /  4.7km/h 11mph /  17.7km/h 62% 0in /  0.0mm 58 W/m2
19:42 64.9 °F /  18.3 °C 52 °F /  11.1 °C 29.9in /  1011.9hPa South 2mph /  3.2km/h 5mph /  8km/h 63% 0in /  0.0mm 54 W/m2
19:47 64.6 °F /  18.1 °C 52.2 °F /  11.2 °C 29.9in /  1012.2hPa ENE 4mph /  6.4km/h 11mph /  17.7km/h 64% 0in /  0.0mm 40 W/m2
19:52 64.2 °F /  17.9 °C 51.8 °F /  11 °C 29.9in /  1012.2hPa North 2mph /  3.2km/h 6mph /  9.7km/h 64% 0in /  0.0mm 35 W/m2
19:57 63.9 °F /  17.7 °C 51.8 °F /  11 °C 29.9in /  1012.2hPa NW 2.9mph /  4.7km/h 3mph /  4.8km/h 65% 0in /  0.0mm 30 W/m2
20:02 63.7 °F /  17.6 °C 52.2 °F /  11.2 °C 29.9in /  1012.2hPa SE 0.9mph /  1.4km/h 3mph /  4.8km/h 66% 0in /  0.0mm 21 W/m2
20:07 63.3 °F /  17.4 °C 51.8 °F /  11 °C 29.9in /  1012.2hPa Calm   2mph /  3.2km/h 66% 0in /  0.0mm 14 W/m2
20:12 63.1 °F /  17.3 °C 52 °F /  11.1 °C 29.9in /  1012.5hPa NNE 2mph /  3.2km/h 6mph /  9.7km/h 67% 0in /  0.0mm 12 W/m2
20:17 63.1 °F /  17.3 °C 51.6 °F /  10.9 °C 29.9in /  1012.5hPa SE 4mph /  6.4km/h 9mph /  14.5km/h 66% 0in /  0.0mm 11 W/m2
20:22 63 °F /  17.2 °C 51.1 °F /  10.6 °C 29.9in /  1012.5hPa ESE 2.9mph /  4.7km/h 4mph /  6.4km/h 65% 0in /  0.0mm 9 W/m2
20:27 63 °F /  17.2 °C 51.4 °F /  10.8 °C 29.9in /  1012.5hPa East 2.9mph /  4.7km/h 5mph /  8km/h 66% 0in /  0.0mm 7 W/m2
20:32 62.8 °F /  17.1 °C 51.3 °F /  10.7 °C 29.9in /  1012.5hPa East 4mph /  6.4km/h 4mph /  6.4km/h 66% 0in /  0.0mm 5 W/m2
20:37 62.6 °F /  17 °C 51.1 °F /  10.6 °C 29.9in /  1012.5hPa SE 4mph /  6.4km/h 9mph /  14.5km/h 66% 0in /  0.0mm 0 W/m2
20:42 62.4 °F /  16.9 °C 50.9 °F /  10.5 °C 29.9in /  1012.9hPa ENE 2.9mph /  4.7km/h 8mph /  12.9km/h 66% 0in /  0.0mm 0 W/m2
20:47 62.2 °F /  16.8 °C 50.7 °F /  10.4 °C 29.9in /  1012.9hPa ENE 6.9mph /  11.1km/h 12mph /  19.3km/h 66% 0in /  0.0mm 0 W/m2
20:52 62.1 °F /  16.7 °C 50.9 °F /  10.5 °C 29.9in /  1012.9hPa ESE 2mph /  3.2km/h 7mph /  11.3km/h 67% 0in /  0.0mm 0 W/m2
20:57 62.1 °F /  16.7 °C 50.9 °F /  10.5 °C 29.9in /  1012.9hPa East 2mph /  3.2km/h 12mph /  19.3km/h 67% 0in /  0.0mm 0 W/m2
21:02 61.9 °F /  16.6 °C 50.4 °F /  10.2 °C 29.9in /  1012.9hPa SE 2.9mph /  4.7km/h 5mph /  8km/h 66% 0in /  0.0mm 0 W/m2
21:07 61.7 °F /  16.5 °C 50.2 °F /  10.1 °C 29.9in /  1012.9hPa NNE 2mph /  3.2km/h 12mph /  19.3km/h 66% 0in /  0.0mm 0 W/m2
21:12 61.5 °F /  16.4 °C 50 °F /  10 °C 29.9in /  1012.9hPa ESE 6.9mph /  11.1km/h 7mph /  11.3km/h 66% 0in /  0.0mm 0 W/m2
21:17 61.3 °F /  16.3 °C 49.8 °F /  9.9 °C 29.9in /  1013.2hPa ENE 0.9mph /  1.4km/h 12mph /  19.3km/h 66% 0in /  0.0mm 0 W/m2
21:22 61.2 °F /  16.2 °C 49.6 °F /  9.8 °C 29.9in /  1013.2hPa ENE 2mph /  3.2km/h 5mph /  8km/h 66% 0in /  0.0mm 0 W/m2
21:28 61 °F /  16.1 °C 50 °F /  10 °C 29.9in /  1013.2hPa ENE 2.9mph /  4.7km/h 9mph /  14.5km/h 67% 0in /  0.0mm 0 W/m2
21:33 61 °F /  16.1 °C 50 °F /  10 °C 29.9in /  1013.2hPa East 2mph /  3.2km/h 6mph /  9.7km/h 67% 0in /  0.0mm 0 W/m2
21:38 60.6 °F /  15.9 °C 49.6 °F /  9.8 °C 29.9in /  1013.2hPa ESE 2mph /  3.2km/h 7mph /  11.3km/h 67% 0in /  0.0mm 0 W/m2
21:43 60.6 °F /  15.9 °C 49.3 °F /  9.6 °C 29.9in /  1013.2hPa ESE 2.9mph /  4.7km/h 5mph /  8km/h 66% 0in /  0.0mm 0 W/m2
21:48 60.4 °F /  15.8 °C 49.1 °F /  9.5 °C 29.9in /  1013.5hPa East 4mph /  6.4km/h 4mph /  6.4km/h 66% 0in /  0.0mm 0 W/m2
21:53 60.1 °F /  15.6 °C 48.7 °F /  9.3 °C 29.9in /  1013.5hPa ESE 2.9mph /  4.7km/h 9mph /  14.5km/h 66% 0in /  0.0mm 0 W/m2
21:58 60.1 °F /  15.6 °C 48.7 °F /  9.3 °C 29.9in /  1013.5hPa East 8.9mph /  14.3km/h 9mph /  14.5km/h 66% 0in /  0.0mm 0 W/m2
22:03 60.1 °F /  15.6 °C 48.7 °F /  9.3 °C 29.9in /  1013.5hPa ESE 4mph /  6.4km/h 4mph /  6.4km/h 66% 0in /  0.0mm 0 W/m2
22:08 59.7 °F /  15.4 °C 48.7 °F /  9.3 °C 29.9in /  1013.5hPa ENE 2mph /  3.2km/h 9mph /  14.5km/h 67% 0in /  0.0mm 0 W/m2
22:13 59.7 °F /  15.4 °C 48.4 °F /  9.1 °C 29.9in /  1013.5hPa SE 0.9mph /  1.4km/h 4mph /  6.4km/h 66% 0in /  0.0mm 0 W/m2
22:18 59.5 °F /  15.3 °C 47.8 °F /  8.8 °C 29.9in /  1013.5hPa ESE 8.9mph /  14.3km/h 9mph /  14.5km/h 65% 0in /  0.0mm 0 W/m2
22:23 59.5 °F /  15.3 °C 47.8 °F /  8.8 °C 29.9in /  1013.5hPa East 4mph /  6.4km/h 8mph /  12.9km/h 65% 0in /  0.0mm 0 W/m2
22:28 59.4 °F /  15.2 °C 47.7 °F /  8.7 °C 29.9in /  1013.5hPa NE 2mph /  3.2km/h 4mph /  6.4km/h 65% 0in /  0.0mm 0 W/m2
22:33 59.4 °F /  15.2 °C 47.7 °F /  8.7 °C 29.9in /  1013.5hPa ESE 0.9mph /  1.4km/h 7mph /  11.3km/h 65% 0in /  0.0mm 0 W/m2
22:38 59.2 °F /  15.1 °C 46.9 °F /  8.3 °C 29.9in /  1013.5hPa NE 2.9mph /  4.7km/h 12mph /  19.3km/h 64% 0in /  0.0mm 0 W/m2
22:43 58.8 °F /  14.9 °C 46.2 °F /  7.9 °C 29.9in /  1013.5hPa NE 2mph /  3.2km/h 13mph /  20.9km/h 63% 0in /  0.0mm 0 W/m2
22:48 58.8 °F /  14.9 °C 46.2 °F /  7.9 °C 29.9in /  1013.9hPa SE 2mph /  3.2km/h 10mph /  16.1km/h 63% 0in /  0.0mm 0 W/m2
22:53 58.6 °F /  14.8 °C 46.6 °F /  8.1 °C 29.9in /  1013.5hPa ENE 2mph /  3.2km/h 5mph /  8km/h 64% 0in /  0.0mm 0 W/m2
22:58 58.5 °F /  14.7 °C 46.4 °F /  8 °C 29.9in /  1013.5hPa East 4mph /  6.4km/h 7mph /  11.3km/h 64% 0in /  0.0mm 0 W/m2
23:03 58.3 °F /  14.6 °C 46.6 °F /  8.1 °C 29.9in /  1013.9hPa SSE 0.9mph /  1.4km/h 5mph /  8km/h 65% 0in /  0.0mm 0 W/m2
23:08 58.1 °F /  14.5 °C 46 °F /  7.8 °C 29.9in /  1013.9hPa East 2mph /  3.2km/h 5mph /  8km/h 64% 0in /  0.0mm 0 W/m2
23:14 57.7 °F /  14.3 °C 45.7 °F /  7.6 °C 29.9in /  1013.9hPa SE 2.9mph /  4.7km/h 7mph /  11.3km/h 64% 0in /  0.0mm 0 W/m2
23:19 57.7 °F /  14.3 °C 45.7 °F /  7.6 °C 29.9in /  1013.9hPa East 2.9mph /  4.7km/h 6mph /  9.7km/h 64% 0in /  0.0mm 0 W/m2
23:24 57.6 °F /  14.2 °C 45.5 °F /  7.5 °C 29.9in /  1013.9hPa SE 2.9mph /  4.7km/h 7mph /  11.3km/h 64% 0in /  0.0mm 0 W/m2
23:29 57.4 °F /  14.1 °C 45.3 °F /  7.4 °C 29.9in /  1013.9hPa ESE 2mph /  3.2km/h 5mph /  8km/h 64% 0in /  0.0mm 0 W/m2
23:34 57 °F /  13.9 °C 45 °F /  7.2 °C 29.9in /  1013.9hPa ESE 2.9mph /  4.7km/h 7mph /  11.3km/h 64% 0in /  0.0mm 0 W/m2
23:39 56.8 °F /  13.8 °C 44.8 °F /  7.1 °C 29.9in /  1013.9hPa SSE 2mph /  3.2km/h 4mph /  6.4km/h 64% 0in /  0.0mm 0 W/m2
23:44 56.8 °F /  13.8 °C 44.8 °F /  7.1 °C 29.9in /  1013.9hPa ESE 2mph /  3.2km/h 4mph /  6.4km/h 64% 0in /  0.0mm 0 W/m2
23:49 56.7 °F /  13.7 °C 44.2 °F /  6.8 °C 29.9in /  1013.9hPa SE 2.9mph /  4.7km/h 12mph /  19.3km/h 63% 0in /  0.0mm 0 W/m2
23:54 56.7 °F /  13.7 °C 44.6 °F /  7 °C 29.9in /  1013.9hPa ESE 2mph /  3.2km/h 2mph /  3.2km/h 64% 0in /  0.0mm 0 W/m2
23:59 56.5 °F /  13.6 °C 44.4 °F /  6.9 °C 29.9in /  1013.5hPa SE 4.9mph /  7.9km/h 12mph /  19.3km/h 64% 0in /  0.0mm 0 W/m2
Juneau County Weather
Compliments of Weather Underground - 2 mb